Terminal Aerodrome Forecast
Issued by NWS Norman, OK

Home | Current Version | Previous Version | Text Only | Print | Product List | Glossary On
Versions: 1 2 3 4 5 6 7 8 9 10 11 12 13 14 15 16 17 18 19 20 21 22 23 24 25 26 27 28 29 30 31 32 33 34
976
FTUS44 KOUN 191748
TAFOKC
TAF
KOKC 191748Z 1918/2018 16014G18KT P6SM BKN010
     FM191900 17015G20KT P6SM SCT010
     FM192000 18012G18KT P6SM FEW250
     FM200000 19008KT P6SM SCT250
     FM200400 VRB06KT 2SM BR SCT250
     FM200800 VRB06KT 1SM BR BKN250
     FM201500 21012KT P6SM BKN250=

USA.gov is the U.S. government's official web portal to all federal, state and local government web resources and services.